Informes METAR

 

KSJC - San Jose, California, USA
Distancia de la estación: NE 14km
Actualización: 08/02/2023 23:53
Poco nuboso
Poco nuboso
 Viento de NO
Viento: NO 13 km/h
Temperatura: 18°C
Rocío: 4°C
Humedad: 40%
Barómetro: 1026.4 hPa
Nubes: Poco nuboso
Visibilidad: 16 km
Detalles de las nubes: Poco nuboso 7620 m
2023/02/08 22:53 KSJC 082253Z 32007KT 10SM FEW250 18/04 A3031 RMK AO2 SLP264 T01780044
KNUQ - Moffett Nas/Mtn, California, USA
Distancia de la estación: N 14km
Actualización: 09/02/2023 00:35
Despejado
Despejado
 Viento de N
Viento: N 13 km/h
Temperatura: 17°C
Rocío: 7°C
Humedad: 52%
Barómetro: 1026.4 hPa
Nubes: Despejado
Visibilidad: 16 km
2023/02/08 23:35 KNUQ 082335Z AUTO 35007KT 10SM CLR 17/07 A3031 RMK AO2
 
KPAO - Palo Alto, California, USA
Distancia de la estación: NNO 23km
Actualización: 09/02/2023 00:47
Despejado
Despejado
 Viento de NO
Viento: NO 17 km/h
Temperatura: 16°C
Rocío: 6°C
Humedad: 52%
Barómetro: 1026.8 hPa
Nubes: Despejado
Visibilidad: 16 km
2023/02/08 23:47 KPAO 082347Z 32009KT 10SM SKC 16/06 A3032
KRHV - San Jose/Reid, California, USA
Distancia de la estación: ENE 19km
Actualización: 08/02/2023 23:47
Despejado
Despejado
 Viento de NO
Viento: NO 9 km/h
Temperatura: 17°C
Rocío: 6°C
Humedad: 49%
Barómetro: 1026.8 hPa
Nubes: Despejado
Visibilidad: 16 km
2023/02/08 22:47 KRHV 082247Z 32005KT 10SM SKC 17/06 A3032
 
KOAK - Oakland, California, USA
Distancia de la estación: NNO 50km
Actualización: 08/02/2023 23:53
Parcialmente nuboso
Parcialmente nuboso
 Viento de ONO
Viento: ONO 15 km/h
Temperatura: 17°C
Rocío: 7°C
Humedad: 52%
Barómetro: 1027.1 hPa
Nubes: Parcialmente nuboso
Visibilidad: 16 km
Detalles de las nubes: Poco nuboso 4267 m
Poco nuboso 6706 m
Parcialmente nuboso 9144 m
2023/02/08 22:53 KOAK 082253Z 30008KT 10SM FEW140 FEW220 SCT300 17/07 A3033 RMK AO2 SLP270 T01670067
KSQL - San Carlos Airpo, California, USA
Distancia de la estación: NO 34km
Actualización: 08/02/2023 23:47
Despejado
Despejado
 Viento de NO
Viento: NO 9 km/h
Temperatura: 17°C
Rocío: 4°C
Humedad: 42%
Barómetro: 1027.1 hPa
Nubes: Despejado
Visibilidad: 16 km
2023/02/08 22:47 KSQL 082247Z 32005KT 10SM CLR 17/04 A3033
 
KSFO - San Francisco, California, USA
Distancia de la estación: NO 49km
Actualización: 08/02/2023 23:56
Poco nuboso
Poco nuboso
 Viento de N
Viento: N 13 km/h
Temperatura: 15°C
Rocío: 9°C
Humedad: 68%
Barómetro: 1026.8 hPa
Nubes: Poco nuboso
Visibilidad: 16 km
Detalles de las nubes: Poco nuboso 6096 m
2023/02/08 22:56 KSFO 082256Z 01007KT 10SM FEW200 15/09 A3032 RMK AO2 SLP267 T01500094
KE16 - San Martin, California, USA
Distancia de la estación: ESE 43km
Actualización: 09/02/2023 00:35
Despejado
Despejado
 Viento de NNO
Viento: NNO 15 km/h
Temperatura: 18°C
Rocío: 5°C
Humedad: 43%
Barómetro: 1026.4 hPa
Nubes: Despejado
Visibilidad: 16 km
2023/02/08 23:35 KE16 082335Z AUTO 33008KT 10SM CLR 18/05 A3031 RMK AO2 PWINO PNO
 
KWVI - Watsonville, California, USA
Distancia de la estación: SSE 44km
Actualización: 08/02/2023 23:53
Despejado
Despejado
 Viento de O
Viento: O 9 km/h
Temperatura: 18°C
Rocío: 8°C
Humedad: 52%
Barómetro: 1026.1 hPa
Nubes: Despejado
Visibilidad: 16 km
2023/02/08 22:53 KWVI 082253Z AUTO 28005KT 10SM CLR 18/08 A3030 RMK AO2 SLP260 T01830083
KHAF - Half Moon Bay, California, USA
Distancia de la estación: ONO 50km
Actualización: 09/02/2023 00:35
Calima, Despejado
Calima, Despejado
 Viento de NNO
Viento: NNO 20 km/h
Temperatura: 13°C
Rocío: 10°C
Humedad: 82%
Barómetro: 1026.4 hPa
Resumen: Calima
Nubes: Despejado
Visibilidad: 10 km
2023/02/08 23:35 KHAF 082335Z AUTO 34011KT 6SM HZ CLR 13/10 A3031 RMK AO2
 
KHWD - Hayward, California, USA
Distancia de la estación: N 44km
Actualización: 08/02/2023 23:54
Despejado
Despejado
 Viento de O
Viento: O 17 km/h
Temperatura: 17°C
Rocío: 6°C
Humedad: 49%
Barómetro: 1026.4 hPa
Nubes: Despejado
Visibilidad: 16 km
2023/02/08 22:54 KHWD 082254Z 28009KT 10SM CLR 17/06 A3031 RMK AO2 SLP275 T01720056
KLVK - Livermore, California, USA
Distancia de la estación: NNE 51km
Actualización: 08/02/2023 23:53
Despejado
Despejado
 Viento de ENE
Viento: ENE 19 km/h
Temperatura: 17°C
Rocío: 7°C
Humedad: 52%
Barómetro: 1026.4 hPa
Nubes: Despejado
Visibilidad: 16 km
2023/02/08 22:53 KLVK 082253Z 06010KT 10SM CLR 17/07 A3031 RMK AO2 SLP264 T01720072